Bremen, Ohio
Current Conditions -  °F | °C
As of 5:53 AM on Monday 22 Dec 2014 (Local Time) from KLHQ Reporting Station
Haze Haze  
Wind Chill: 29°   Ceiling: 5000
Heat Index: 29°   Visibility: 4mi
Dew Point: 22°   Wind: 0mph
Humidity: 75%   Direction: NA
Pressure: 30.07"   Gusts: NA
Location:  39.7°N, 82.43°W
Report Text: KLHQ 221053Z AUTO 00000KT 4SM HZ OVC050 M02/M06 A3007 RMK AO2 SLP190 T10171056
Loading
Personal Weather Stations






























Interactive Weather Map New forecast layout! Learn more

10-Day Weather Forecast

Advertisements
Track Severe Weather on mobile